sensor_id;sensor_type;location;lat;lon;timestamp;P1;durP1;ratioP1;P2;durP2;ratioP2
25359;SDS011;13311;51.386;0.016;2022-10-16T00:04:42;15.65;;;3.63;;
25359;SDS011;13311;51.386;0.016;2022-10-16T00:09:43;21.10;;;4.10;;
25359;SDS011;13311;51.386;0.016;2022-10-16T00:14:43;22.50;;;4.60;;
25359;SDS011;13311;51.386;0.016;2022-10-16T00:19:44;17.58;;;3.42;;
25359;SDS011;13311;51.386;0.016;2022-10-16T00:24:45;19.60;;;3.35;;
25359;SDS011;13311;51.386;0.016;2022-10-16T00:29:49;15.15;;;3.20;;
25359;SDS011;13311;51.386;0.016;2022-10-16T00:34:51;21.13;;;3.58;;
25359;SDS011;13311;51.386;0.016;2022-10-16T00:39:54;24.00;;;4.80;;
25359;SDS011;13311;51.386;0.016;2022-10-16T00:44:56;19.27;;;4.22;;
25359;SDS011;13311;51.386;0.016;2022-10-16T00:50:08;21.45;;;3.65;;
25359;SDS011;13311;51.386;0.016;2022-10-16T00:55:13;17.13;;;3.70;;
25359;SDS011;13311;51.386;0.016;2022-10-16T01:00:17;16.17;;;3.55;;
25359;SDS011;13311;51.386;0.016;2022-10-16T01:05:49;11.55;;;2.80;;
25359;SDS011;13311;51.386;0.016;2022-10-16T01:10:54;14.80;;;3.83;;
25359;SDS011;13311;51.386;0.016;2022-10-16T01:16:06;15.00;;;3.65;;
25359;SDS011;13311;51.386;0.016;2022-10-16T01:21:19;12.57;;;3.67;;
25359;SDS011;13311;51.386;0.016;2022-10-16T01:32:28;17.38;;;3.80;;
25359;SDS011;13311;51.386;0.016;2022-10-16T01:42:49;16.92;;;3.85;;
25359;SDS011;13311;51.386;0.016;2022-10-16T01:47:57;16.85;;;3.42;;
25359;SDS011;13311;51.386;0.016;2022-10-16T01:53:03;23.33;;;4.03;;
25359;SDS011;13311;51.386;0.016;2022-10-16T01:58:07;18.35;;;3.45;;
25359;SDS011;13311;51.386;0.016;2022-10-16T02:03:09;22.50;;;5.05;;
25359;SDS011;13311;51.386;0.016;2022-10-16T02:08:15;20.05;;;4.78;;
25359;SDS011;13311;51.386;0.016;2022-10-16T02:13:17;18.50;;;4.30;;
25359;SDS011;13311;51.386;0.016;2022-10-16T02:18:23;21.45;;;4.57;;
25359;SDS011;13311;51.386;0.016;2022-10-16T02:29:02;15.60;;;2.78;;
25359;SDS011;13311;51.386;0.016;2022-10-16T02:34:09;13.13;;;2.92;;
25359;SDS011;13311;51.386;0.016;2022-10-16T02:39:12;13.82;;;2.90;;
25359;SDS011;13311;51.386;0.016;2022-10-16T02:44:14;14.13;;;3.20;;
25359;SDS011;13311;51.386;0.016;2022-10-16T02:49:15;17.20;;;2.45;;
25359;SDS011;13311;51.386;0.016;2022-10-16T02:54:18;16.92;;;3.80;;
25359;SDS011;13311;51.386;0.016;2022-10-16T02:59:18;10.10;;;3.10;;
25359;SDS011;13311;51.386;0.016;2022-10-16T03:04:19;11.57;;;2.80;;
25359;SDS011;13311;51.386;0.016;2022-10-16T03:09:20;18.13;;;3.35;;
25359;SDS011;13311;51.386;0.016;2022-10-16T03:14:20;16.60;;;2.75;;
25359;SDS011;13311;51.386;0.016;2022-10-16T03:19:21;13.88;;;2.63;;
25359;SDS011;13311;51.386;0.016;2022-10-16T03:24:22;13.70;;;2.88;;
25359;SDS011;13311;51.386;0.016;2022-10-16T03:29:23;16.35;;;3.20;;
25359;SDS011;13311;51.386;0.016;2022-10-16T03:34:25;19.15;;;3.42;;
25359;SDS011;13311;51.386;0.016;2022-10-16T03:39:26;15.13;;;2.45;;
25359;SDS011;13311;51.386;0.016;2022-10-16T03:44:27;11.70;;;2.65;;
25359;SDS011;13311;51.386;0.016;2022-10-16T03:49:27;13.85;;;2.63;;
25359;SDS011;13311;51.386;0.016;2022-10-16T03:54:28;14.57;;;3.05;;
25359;SDS011;13311;51.386;0.016;2022-10-16T03:59:29;22.75;;;3.85;;
25359;SDS011;13311;51.386;0.016;2022-10-16T04:04:30;13.93;;;3.33;;
25359;SDS011;13311;51.386;0.016;2022-10-16T04:09:30;8.48;;;2.45;;
25359;SDS011;13311;51.386;0.016;2022-10-16T04:14:31;17.65;;;2.90;;
25359;SDS011;13311;51.386;0.016;2022-10-16T04:19:32;11.68;;;2.53;;
25359;SDS011;13311;51.386;0.016;2022-10-16T04:24:33;12.75;;;2.50;;
25359;SDS011;13311;51.386;0.016;2022-10-16T04:29:34;13.55;;;2.67;;
25359;SDS011;13311;51.386;0.016;2022-10-16T04:34:34;20.13;;;3.42;;
25359;SDS011;13311;51.386;0.016;2022-10-16T04:39:35;11.73;;;3.53;;
25359;SDS011;13311;51.386;0.016;2022-10-16T04:44:36;14.52;;;2.83;;
25359;SDS011;13311;51.386;0.016;2022-10-16T04:49:37;17.38;;;3.63;;
25359;SDS011;13311;51.386;0.016;2022-10-16T04:54:37;18.25;;;2.90;;
25359;SDS011;13311;51.386;0.016;2022-10-16T04:59:38;13.68;;;2.78;;
25359;SDS011;13311;51.386;0.016;2022-10-16T05:04:39;14.93;;;2.83;;
25359;SDS011;13311;51.386;0.016;2022-10-16T05:09:39;15.00;;;3.08;;
25359;SDS011;13311;51.386;0.016;2022-10-16T05:14:40;16.15;;;3.28;;
25359;SDS011;13311;51.386;0.016;2022-10-16T05:19:41;11.88;;;2.72;;
25359;SDS011;13311;51.386;0.016;2022-10-16T05:24:41;23.67;;;3.53;;
25359;SDS011;13311;51.386;0.016;2022-10-16T05:29:42;15.35;;;3.05;;
25359;SDS011;13311;51.386;0.016;2022-10-16T05:34:45;15.10;;;2.95;;
25359;SDS011;13311;51.386;0.016;2022-10-16T05:39:46;16.42;;;2.60;;
25359;SDS011;13311;51.386;0.016;2022-10-16T05:44:47;12.23;;;3.45;;
25359;SDS011;13311;51.386;0.016;2022-10-16T05:49:47;12.93;;;3.72;;
25359;SDS011;13311;51.386;0.016;2022-10-16T05:54:48;15.57;;;3.13;;
25359;SDS011;13311;51.386;0.016;2022-10-16T05:59:49;18.13;;;3.63;;
25359;SDS011;13311;51.386;0.016;2022-10-16T06:04:53;18.17;;;3.53;;
25359;SDS011;13311;51.386;0.016;2022-10-16T06:09:53;9.65;;;2.90;;
25359;SDS011;13311;51.386;0.016;2022-10-16T06:14:54;18.17;;;2.75;;
25359;SDS011;13311;51.386;0.016;2022-10-16T06:19:55;10.68;;;2.65;;
25359;SDS011;13311;51.386;0.016;2022-10-16T06:24:56;18.90;;;3.85;;
25359;SDS011;13311;51.386;0.016;2022-10-16T06:29:56;18.33;;;3.33;;
25359;SDS011;13311;51.386;0.016;2022-10-16T06:34:57;13.82;;;3.72;;
25359;SDS011;13311;51.386;0.016;2022-10-16T06:39:58;16.08;;;2.92;;
25359;SDS011;13311;51.386;0.016;2022-10-16T06:45:00;19.20;;;3.22;;
25359;SDS011;13311;51.386;0.016;2022-10-16T06:50:01;11.80;;;3.15;;
25359;SDS011;13311;51.386;0.016;2022-10-16T06:55:03;17.20;;;3.28;;
25359;SDS011;13311;51.386;0.016;2022-10-16T07:00:05;16.25;;;3.50;;
25359;SDS011;13311;51.386;0.016;2022-10-16T07:05:07;21.92;;;3.85;;
25359;SDS011;13311;51.386;0.016;2022-10-16T07:10:08;17.60;;;3.28;;
25359;SDS011;13311;51.386;0.016;2022-10-16T07:15:09;11.48;;;2.92;;
25359;SDS011;13311;51.386;0.016;2022-10-16T07:20:09;13.65;;;3.08;;
25359;SDS011;13311;51.386;0.016;2022-10-16T07:25:10;11.82;;;2.88;;
25359;SDS011;13311;51.386;0.016;2022-10-16T07:30:11;12.27;;;3.05;;
25359;SDS011;13311;51.386;0.016;2022-10-16T07:35:12;16.48;;;2.92;;
25359;SDS011;13311;51.386;0.016;2022-10-16T07:40:13;14.32;;;3.15;;
25359;SDS011;13311;51.386;0.016;2022-10-16T07:45:14;24.58;;;3.58;;
25359;SDS011;13311;51.386;0.016;2022-10-16T07:50:15;14.15;;;3.17;;
25359;SDS011;13311;51.386;0.016;2022-10-16T07:55:16;19.67;;;3.88;;
25359;SDS011;13311;51.386;0.016;2022-10-16T08:00:16;14.50;;;3.03;;
25359;SDS011;13311;51.386;0.016;2022-10-16T08:05:17;15.80;;;3.35;;
25359;SDS011;13311;51.386;0.016;2022-10-16T08:10:20;19.80;;;4.05;;
25359;SDS011;13311;51.386;0.016;2022-10-16T08:15:22;21.10;;;4.07;;
25359;SDS011;13311;51.386;0.016;2022-10-16T08:20:24;20.67;;;4.30;;
25359;SDS011;13311;51.386;0.016;2022-10-16T08:25:25;16.08;;;3.05;;
25359;SDS011;13311;51.386;0.016;2022-10-16T08:30:26;12.27;;;2.80;;
25359;SDS011;13311;51.386;0.016;2022-10-16T08:35:27;14.15;;;3.58;;
25359;SDS011;13311;51.386;0.016;2022-10-16T08:40:29;16.25;;;3.35;;
25359;SDS011;13311;51.386;0.016;2022-10-16T08:50:44;12.73;;;2.75;;
25359;SDS011;13311;51.386;0.016;2022-10-16T08:55:52;6.75;;;1.92;;
25359;SDS011;13311;51.386;0.016;2022-10-16T09:00:54;13.40;;;3.20;;
25359;SDS011;13311;51.386;0.016;2022-10-16T09:22:44;15.48;;;3.47;;
25359;SDS011;13311;51.386;0.016;2022-10-16T09:27:45;10.95;;;2.70;;
25359;SDS011;13311;51.386;0.016;2022-10-16T09:32:50;8.98;;;2.10;;
25359;SDS011;13311;51.386;0.016;2022-10-16T09:37:53;8.20;;;2.35;;
25359;SDS011;13311;51.386;0.016;2022-10-16T09:43:02;8.60;;;2.40;;
25359;SDS011;13311;51.386;0.016;2022-10-16T09:48:25;6.47;;;2.45;;
25359;SDS011;13311;51.386;0.016;2022-10-16T09:53:54;12.48;;;2.92;;
25359;SDS011;13311;51.386;0.016;2022-10-16T09:58:58;6.43;;;1.92;;
25359;SDS011;13311;51.386;0.016;2022-10-16T10:04:01;13.48;;;3.05;;
25359;SDS011;13311;51.386;0.016;2022-10-16T10:09:04;10.07;;;1.95;;
25359;SDS011;13311;51.386;0.016;2022-10-16T10:14:19;8.63;;;2.42;;
25359;SDS011;13311;51.386;0.016;2022-10-16T10:19:23;7.20;;;2.08;;
25359;SDS011;13311;51.386;0.016;2022-10-16T10:24:24;6.32;;;1.80;;
25359;SDS011;13311;51.386;0.016;2022-10-16T10:35:00;7.85;;;2.03;;
25359;SDS011;13311;51.386;0.016;2022-10-16T10:46:14;4.63;;;1.30;;
25359;SDS011;13311;51.386;0.016;2022-10-16T10:57:18;6.32;;;1.55;;
25359;SDS011;13311;51.386;0.016;2022-10-16T11:02:34;7.00;;;1.85;;
25359;SDS011;13311;51.386;0.016;2022-10-16T11:07:51;4.25;;;1.60;;
25359;SDS011;13311;51.386;0.016;2022-10-16T11:13:10;9.15;;;2.90;;
25359;SDS011;13311;51.386;0.016;2022-10-16T11:18:32;8.27;;;1.65;;
25359;SDS011;13311;51.386;0.016;2022-10-16T11:28:56;9.60;;;2.45;;
25359;SDS011;13311;51.386;0.016;2022-10-16T11:49:45;10.48;;;2.30;;
25359;SDS011;13311;51.386;0.016;2022-10-16T11:54:49;6.47;;;2.47;;
25359;SDS011;13311;51.386;0.016;2022-10-16T12:05:18;14.00;;;2.75;;
25359;SDS011;13311;51.386;0.016;2022-10-16T12:10:31;11.32;;;3.03;;
25359;SDS011;13311;51.386;0.016;2022-10-16T12:15:36;28.17;;;3.53;;
25359;SDS011;13311;51.386;0.016;2022-10-16T12:20:37;14.85;;;2.50;;
25359;SDS011;13311;51.386;0.016;2022-10-16T12:25:53;16.23;;;3.60;;
25359;SDS011;13311;51.386;0.016;2022-10-16T12:31:02;10.32;;;3.40;;
25359;SDS011;13311;51.386;0.016;2022-10-16T12:41:31;10.98;;;3.10;;
25359;SDS011;13311;51.386;0.016;2022-10-16T12:46:37;10.25;;;3.35;;
25359;SDS011;13311;51.386;0.016;2022-10-16T12:51:40;10.98;;;3.10;;
25359;SDS011;13311;51.386;0.016;2022-10-16T13:19:22;12.85;;;2.58;;
25359;SDS011;13311;51.386;0.016;2022-10-16T13:24:58;12.77;;;3.15;;
25359;SDS011;13311;51.386;0.016;2022-10-16T13:30:25;15.32;;;4.10;;
25359;SDS011;13311;51.386;0.016;2022-10-16T13:35:31;17.20;;;3.33;;
25359;SDS011;13311;51.386;0.016;2022-10-16T13:40:33;19.70;;;4.40;;
25359;SDS011;13311;51.386;0.016;2022-10-16T13:45:34;18.90;;;4.53;;
25359;SDS011;13311;51.386;0.016;2022-10-16T13:50:35;19.40;;;4.70;;
25359;SDS011;13311;51.386;0.016;2022-10-16T13:55:36;14.15;;;4.25;;
25359;SDS011;13311;51.386;0.016;2022-10-16T14:00:36;19.65;;;4.10;;
25359;SDS011;13311;51.386;0.016;2022-10-16T14:05:42;15.82;;;4.05;;
25359;SDS011;13311;51.386;0.016;2022-10-16T14:10:50;24.08;;;5.15;;
25359;SDS011;13311;51.386;0.016;2022-10-16T14:15:54;13.55;;;3.38;;
25359;SDS011;13311;51.386;0.016;2022-10-16T14:21:02;14.43;;;3.63;;
25359;SDS011;13311;51.386;0.016;2022-10-16T14:36:30;13.15;;;3.38;;
25359;SDS011;13311;51.386;0.016;2022-10-16T14:41:32;11.38;;;3.45;;
25359;SDS011;13311;51.386;0.016;2022-10-16T14:46:41;20.83;;;3.58;;
25359;SDS011;13311;51.386;0.016;2022-10-16T14:51:43;12.68;;;3.45;;
25359;SDS011;13311;51.386;0.016;2022-10-16T14:56:47;14.55;;;4.45;;
25359;SDS011;13311;51.386;0.016;2022-10-16T15:01:53;16.13;;;4.05;;
25359;SDS011;13311;51.386;0.016;2022-10-16T15:06:54;19.40;;;4.75;;
25359;SDS011;13311;51.386;0.016;2022-10-16T15:11:55;19.30;;;5.07;;
25359;SDS011;13311;51.386;0.016;2022-10-16T15:16:56;13.85;;;3.72;;
25359;SDS011;13311;51.386;0.016;2022-10-16T15:21:57;16.92;;;5.55;;
25359;SDS011;13311;51.386;0.016;2022-10-16T15:26:57;19.73;;;3.88;;
25359;SDS011;13311;51.386;0.016;2022-10-16T15:31:58;17.85;;;4.60;;
25359;SDS011;13311;51.386;0.016;2022-10-16T15:37:02;13.48;;;3.53;;
25359;SDS011;13311;51.386;0.016;2022-10-16T15:42:03;12.77;;;3.90;;
25359;SDS011;13311;51.386;0.016;2022-10-16T15:47:05;13.73;;;4.50;;
25359;SDS011;13311;51.386;0.016;2022-10-16T15:52:07;16.55;;;4.03;;
25359;SDS011;13311;51.386;0.016;2022-10-16T15:57:08;15.40;;;3.75;;
25359;SDS011;13311;51.386;0.016;2022-10-16T16:02:09;15.32;;;3.17;;
25359;SDS011;13311;51.386;0.016;2022-10-16T16:07:10;11.95;;;3.50;;
25359;SDS011;13311;51.386;0.016;2022-10-16T16:12:10;17.50;;;3.55;;
25359;SDS011;13311;51.386;0.016;2022-10-16T16:17:11;9.75;;;3.15;;
25359;SDS011;13311;51.386;0.016;2022-10-16T16:22:12;10.07;;;2.92;;
25359;SDS011;13311;51.386;0.016;2022-10-16T16:27:13;12.52;;;2.90;;
25359;SDS011;13311;51.386;0.016;2022-10-16T16:32:13;8.43;;;2.40;;
25359;SDS011;13311;51.386;0.016;2022-10-16T16:37:14;10.98;;;2.00;;
25359;SDS011;13311;51.386;0.016;2022-10-16T16:42:15;11.82;;;2.95;;
25359;SDS011;13311;51.386;0.016;2022-10-16T16:47:16;8.75;;;3.50;;
25359;SDS011;13311;51.386;0.016;2022-10-16T16:52:17;11.35;;;3.47;;
25359;SDS011;13311;51.386;0.016;2022-10-16T16:57:18;12.43;;;3.63;;
25359;SDS011;13311;51.386;0.016;2022-10-16T17:02:20;12.10;;;3.38;;
25359;SDS011;13311;51.386;0.016;2022-10-16T17:07:20;11.63;;;2.80;;
25359;SDS011;13311;51.386;0.016;2022-10-16T17:12:21;10.55;;;2.92;;
25359;SDS011;13311;51.386;0.016;2022-10-16T17:17:22;12.25;;;2.60;;
25359;SDS011;13311;51.386;0.016;2022-10-16T17:22:23;15.27;;;3.55;;
25359;SDS011;13311;51.386;0.016;2022-10-16T17:27:24;10.25;;;2.70;;
25359;SDS011;13311;51.386;0.016;2022-10-16T17:32:24;10.30;;;2.97;;
25359;SDS011;13311;51.386;0.016;2022-10-16T17:37:26;7.47;;;2.60;;
25359;SDS011;13311;51.386;0.016;2022-10-16T17:42:26;15.55;;;2.92;;
25359;SDS011;13311;51.386;0.016;2022-10-16T17:47:27;10.90;;;3.03;;
25359;SDS011;13311;51.386;0.016;2022-10-16T17:52:28;10.98;;;2.78;;
25359;SDS011;13311;51.386;0.016;2022-10-16T17:57:29;12.05;;;2.72;;
25359;SDS011;13311;51.386;0.016;2022-10-16T18:02:30;8.85;;;3.25;;
25359;SDS011;13311;51.386;0.016;2022-10-16T18:07:52;11.57;;;3.20;;
25359;SDS011;13311;51.386;0.016;2022-10-16T18:12:53;12.82;;;3.25;;
25359;SDS011;13311;51.386;0.016;2022-10-16T18:17:55;7.68;;;2.72;;
25359;SDS011;13311;51.386;0.016;2022-10-16T18:22:56;12.65;;;3.38;;
25359;SDS011;13311;51.386;0.016;2022-10-16T18:27:57;13.75;;;4.35;;
25359;SDS011;13311;51.386;0.016;2022-10-16T18:32:58;8.57;;;4.00;;
25359;SDS011;13311;51.386;0.016;2022-10-16T18:37:58;10.88;;;3.33;;
25359;SDS011;13311;51.386;0.016;2022-10-16T18:43:02;9.52;;;3.92;;
25359;SDS011;13311;51.386;0.016;2022-10-16T18:48:04;11.15;;;3.15;;
25359;SDS011;13311;51.386;0.016;2022-10-16T18:53:05;8.30;;;2.75;;
25359;SDS011;13311;51.386;0.016;2022-10-16T18:58:06;8.23;;;3.22;;
25359;SDS011;13311;51.386;0.016;2022-10-16T19:03:06;7.32;;;2.53;;
25359;SDS011;13311;51.386;0.016;2022-10-16T19:08:07;8.10;;;3.10;;
25359;SDS011;13311;51.386;0.016;2022-10-16T19:13:08;6.18;;;2.92;;
25359;SDS011;13311;51.386;0.016;2022-10-16T19:18:09;5.93;;;2.75;;
25359;SDS011;13311;51.386;0.016;2022-10-16T19:23:10;7.47;;;3.00;;
25359;SDS011;13311;51.386;0.016;2022-10-16T19:28:11;13.27;;;2.83;;
25359;SDS011;13311;51.386;0.016;2022-10-16T19:33:11;7.57;;;2.75;;
25359;SDS011;13311;51.386;0.016;2022-10-16T19:38:12;5.93;;;2.28;;
25359;SDS011;13311;51.386;0.016;2022-10-16T19:43:13;12.82;;;3.30;;
25359;SDS011;13311;51.386;0.016;2022-10-16T19:48:14;10.07;;;2.33;;
25359;SDS011;13311;51.386;0.016;2022-10-16T19:53:14;6.63;;;2.25;;
25359;SDS011;13311;51.386;0.016;2022-10-16T19:58:15;7.50;;;2.42;;
25359;SDS011;13311;51.386;0.016;2022-10-16T20:03:16;9.70;;;2.72;;
25359;SDS011;13311;51.386;0.016;2022-10-16T20:08:17;6.15;;;1.95;;
25359;SDS011;13311;51.386;0.016;2022-10-16T20:13:19;4.45;;;2.20;;
25359;SDS011;13311;51.386;0.016;2022-10-16T20:18:21;12.27;;;2.33;;
25359;SDS011;13311;51.386;0.016;2022-10-16T20:23:22;6.25;;;2.55;;
25359;SDS011;13311;51.386;0.016;2022-10-16T20:28:23;5.75;;;2.05;;
25359;SDS011;13311;51.386;0.016;2022-10-16T20:33:24;7.68;;;2.75;;
25359;SDS011;13311;51.386;0.016;2022-10-16T20:38:25;9.77;;;3.55;;
25359;SDS011;13311;51.386;0.016;2022-10-16T20:43:26;5.68;;;2.47;;
25359;SDS011;13311;51.386;0.016;2022-10-16T20:48:26;6.45;;;2.63;;
25359;SDS011;13311;51.386;0.016;2022-10-16T20:53:27;8.95;;;2.38;;
25359;SDS011;13311;51.386;0.016;2022-10-16T20:58:28;3.28;;;1.63;;
25359;SDS011;13311;51.386;0.016;2022-10-16T21:03:28;5.30;;;1.50;;
25359;SDS011;13311;51.386;0.016;2022-10-16T21:08:29;3.25;;;1.35;;
25359;SDS011;13311;51.386;0.016;2022-10-16T21:13:33;7.03;;;1.90;;
25359;SDS011;13311;51.386;0.016;2022-10-16T21:18:34;3.47;;;1.33;;
25359;SDS011;13311;51.386;0.016;2022-10-16T21:23:35;2.97;;;1.20;;
25359;SDS011;13311;51.386;0.016;2022-10-16T21:28:37;1.10;;;0.80;;
25359;SDS011;13311;51.386;0.016;2022-10-16T21:33:37;3.83;;;1.35;;
25359;SDS011;13311;51.386;0.016;2022-10-16T21:38:38;2.75;;;1.55;;
25359;SDS011;13311;51.386;0.016;2022-10-16T21:43:39;2.95;;;1.30;;
25359;SDS011;13311;51.386;0.016;2022-10-16T21:48:40;6.40;;;1.80;;
25359;SDS011;13311;51.386;0.016;2022-10-16T21:53:43;4.75;;;1.35;;
25359;SDS011;13311;51.386;0.016;2022-10-16T21:58:44;1.63;;;1.30;;
25359;SDS011;13311;51.386;0.016;2022-10-16T22:03:45;2.80;;;1.42;;
25359;SDS011;13311;51.386;0.016;2022-10-16T22:08:47;3.35;;;1.55;;
25359;SDS011;13311;51.386;0.016;2022-10-16T22:13:50;2.83;;;1.50;;
25359;SDS011;13311;51.386;0.016;2022-10-16T22:18:52;7.18;;;2.25;;
25359;SDS011;13311;51.386;0.016;2022-10-16T22:23:54;2.67;;;1.90;;
25359;SDS011;13311;51.386;0.016;2022-10-16T22:28:55;6.20;;;3.15;;
25359;SDS011;13311;51.386;0.016;2022-10-16T22:33:57;8.65;;;3.45;;
25359;SDS011;13311;51.386;0.016;2022-10-16T22:39:00;8.02;;;3.88;;
25359;SDS011;13311;51.386;0.016;2022-10-16T22:44:01;5.55;;;3.33;;
25359;SDS011;13311;51.386;0.016;2022-10-16T22:49:02;4.43;;;2.92;;
25359;SDS011;13311;51.386;0.016;2022-10-16T22:54:02;9.15;;;4.25;;
25359;SDS011;13311;51.386;0.016;2022-10-16T22:59:03;12.57;;;4.30;;
25359;SDS011;13311;51.386;0.016;2022-10-16T23:04:04;13.48;;;3.97;;
25359;SDS011;13311;51.386;0.016;2022-10-16T23:09:05;7.60;;;4.03;;
25359;SDS011;13311;51.386;0.016;2022-10-16T23:14:06;6.07;;;4.30;;
25359;SDS011;13311;51.386;0.016;2022-10-16T23:19:07;10.02;;;4.78;;
25359;SDS011;13311;51.386;0.016;2022-10-16T23:24:07;15.68;;;4.82;;
25359;SDS011;13311;51.386;0.016;2022-10-16T23:29:08;17.55;;;5.03;;
25359;SDS011;13311;51.386;0.016;2022-10-16T23:34:09;16.83;;;5.00;;
25359;SDS011;13311;51.386;0.016;2022-10-16T23:39:10;9.88;;;4.78;;
25359;SDS011;13311;51.386;0.016;2022-10-16T23:44:11;8.77;;;5.05;;
25359;SDS011;13311;51.386;0.016;2022-10-16T23:49:11;15.25;;;4.70;;
25359;SDS011;13311;51.386;0.016;2022-10-16T23:54:12;7.88;;;3.70;;
25359;SDS011;13311;51.386;0.016;2022-10-16T23:59:13;10.90;;;4.90;;
